»·PEaware :: RAGTAG2 KGEG-KSEA

RAGTAG2 :: KGEG-KSEA

FLIGHT INFORMATION

Flight Status: Arrived
Operator: Unknown
More flights by this operator :: More flights under this callsign
Pilot: Alexander S. (21858)
Aircraft: BEECH AIRCRAFT T-6A TEXAN
(TEX2)
More flights by this aircraft type
Origin: KGEG Spokane Intl
United States
Destination: KSEA Seattle-Tacoma Intl
United States
More flights between these airports :: More routes between these airports
Route: +GEG6 EPH EPH8
File this flight plan on PilotEdge
Remarks: Rqst Spokane Six departure to EPH
Altitude:
(Current/Filed)
16,000ft
Speed:
(Current/Filed)
254kts
Departed: 09-Nov-20 10:20 AM
Arrived: 09-Nov-20 11:14 AM
Distance/Time
Traveled:
193nm/0:54
Distance/Time
To Go:
Arrived

Flight Plot

Page will automatically refresh every two minutes.

Flight plan parsing failed; only flown route is shown


Map Options




Map Legend


Flown Route
Filed Route
Departure Airport
Arrival Airport
Navaid (VOR, NDB)
Fix

Horizontal Profiles

Position Reports

Time Latitude Longitude Heading Altitude Ground
Speed
09-Nov-20 10:02 47.620428 -117.528554 359 2359ft 0kts
09-Nov-20 10:03 47.620428 -117.528554 359 2359ft 0kts
09-Nov-20 10:04 47.620428 -117.528554 359 2359ft 0kts
09-Nov-20 10:05 47.620428 -117.528554 359 2359ft 0kts
09-Nov-20 10:06 47.620428 -117.528554 359 2359ft 0kts
09-Nov-20 10:07 47.620428 -117.528554 359 2359ft 0kts
09-Nov-20 10:08 47.620428 -117.528554 359 2359ft 0kts
09-Nov-20 10:09 47.620428 -117.528554 359 2359ft 0kts
09-Nov-20 10:10 47.620428 -117.528554 359 2359ft 0kts
09-Nov-20 10:11 47.620428 -117.528554 359 2359ft 0kts
09-Nov-20 10:12 47.620428 -117.528554 359 2359ft 0kts
09-Nov-20 10:13 47.620428 -117.528554 359 2359ft 0kts
09-Nov-20 10:14 47.620428 -117.528554 359 2359ft 0kts
09-Nov-20 10:15 47.622831 -117.527437 49 2354ft 13kts
09-Nov-20 10:16 47.625850 -117.522858 47 2345ft 17kts
09-Nov-20 10:17 47.629540 -117.517286 43 2327ft 16kts
09-Nov-20 10:18 47.630516 -117.517458 313 2323ft 6kts
09-Nov-20 10:19 47.622043 -117.532035 224 2824ft 138kts
09-Nov-20 10:20 47.590311 -117.574120 224 6426ft 171kts
09-Nov-20 10:21 47.556662 -117.628719 229 10055ft 191kts
09-Nov-20 10:22 47.516063 -117.690421 226 12027ft 257kts
09-Nov-20 10:23 47.494089 -117.774605 265 15958ft 218kts
09-Nov-20 10:24 47.490458 -117.878869 265 16171ft 266kts
09-Nov-20 10:25 47.478936 -117.989666 262 15964ft 278kts
09-Nov-20 10:26 47.467689 -118.104291 263 16062ft 288kts
09-Nov-20 10:27 47.463172 -118.220250 267 16018ft 275kts
09-Nov-20 10:28 47.455660 -118.332198 264 15955ft 269kts
09-Nov-20 10:29 47.449586 -118.442109 267 16014ft 267kts
09-Nov-20 10:30 47.441133 -118.552041 263 15915ft 270kts
09-Nov-20 10:31 47.433190 -118.661977 264 16017ft 268kts
09-Nov-20 10:32 47.425661 -118.772397 264 15905ft 280kts
09-Nov-20 10:33 47.413690 -118.890441 260 15997ft 299kts
09-Nov-20 10:34 47.401955 -119.012861 264 15971ft 300kts
09-Nov-20 10:35 47.396469 -119.135547 266 16035ft 301kts
09-Nov-20 10:36 47.388478 -119.258565 263 16059ft 302kts
09-Nov-20 10:37 47.377804 -119.381143 264 16067ft 301kts
09-Nov-20 10:38 47.388039 -119.496244 286 15954ft 282kts
09-Nov-20 10:39 47.412520 -119.611183 289 16014ft 296kts
09-Nov-20 10:40 47.440088 -119.727454 288 15973ft 302kts
09-Nov-20 10:41 47.460331 -119.847013 280 16017ft 302kts
09-Nov-20 10:42 47.478247 -119.968212 285 16093ft 300kts
09-Nov-20 10:43 47.506087 -120.086117 290 16053ft 302kts
09-Nov-20 10:44 47.534514 -120.203273 285 16116ft 302kts
09-Nov-20 10:45 47.555571 -120.325441 285 16045ft 302kts
09-Nov-20 10:47 47.576316 -120.446869 284 15908ft 305kts
09-Nov-20 10:48 47.598820 -120.567216 286 16032ft 300kts
09-Nov-20 10:49 47.622743 -120.686049 286 15956ft 302kts
09-Nov-20 10:50 47.649190 -120.805082 289 15972ft 301kts
09-Nov-20 10:51 47.668258 -120.927699 281 16060ft 301kts
09-Nov-20 10:52 47.686414 -121.051310 280 15888ft 304kts
09-Nov-20 10:53 47.705107 -121.173790 283 15988ft 303kts
09-Nov-20 10:54 47.724877 -121.297511 284 15947ft 301kts
09-Nov-20 10:55 47.747134 -121.418929 287 15966ft 302kts
09-Nov-20 10:56 47.774381 -121.532553 295 14442ft 285kts
09-Nov-20 10:57 47.802966 -121.637159 289 10021ft 265kts
09-Nov-20 10:58 47.819910 -121.745154 283 10019ft 261kts
09-Nov-20 10:59 47.841321 -121.851710 285 9812ft 257kts
09-Nov-20 11:00 47.840630 -121.959046 264 6737ft 244kts
09-Nov-20 11:01 47.834469 -122.043389 268 4950ft 184kts
09-Nov-20 11:02 47.831587 -122.121563 265 4147ft 194kts
09-Nov-20 11:03 47.827629 -122.201875 266 2945ft 188kts
09-Nov-20 11:04 47.814134 -122.275350 215 3005ft 196kts
09-Nov-20 11:04 47.771421 -122.299976 197 3140ft 196kts
09-Nov-20 11:06 47.714860 -122.302187 183 3132ft 168kts
09-Nov-20 11:06 47.675717 -122.305272 185 3116ft 170kts
09-Nov-20 11:08 47.620427 -122.305608 183 3092ft 171kts
09-Nov-20 11:08 47.590923 -122.304912 186 3002ft 108kts
09-Nov-20 11:09 47.559536 -122.305631 185 2341ft 111kts
09-Nov-20 11:10 47.529166 -122.306742 180 1777ft 110kts
09-Nov-20 11:11 47.498565 -122.307501 183 1175ft 110kts
09-Nov-20 11:12 47.469959 -122.307711 180 590ft 101kts
09-Nov-20 11:13 47.452940 -122.307820 163 418ft 2kts
09-Nov-20 11:14 47.452287 -122.306553 98 416ft 0kts
09-Nov-20 11:15 47.450339 -122.306161 148 407ft 13kts
09-Nov-20 11:16 47.449888 -122.301997 140 404ft 0kts

Navigation Log

Ident Type
Flight plan parsing failed, navigation log unavailable